sensor_id;sensor_type;location;lat;lon;timestamp;pressure;altitude;pressure_sealevel;temperature;humidity
56400;BME280;42298;53.638;9.876;2022-11-23T00:01:35;99747.47;;;5.95;71.67
56400;BME280;42298;53.638;9.876;2022-11-23T00:04:06;99746.78;;;6.03;71.47
56400;BME280;42298;53.638;9.876;2022-11-23T00:06:32;99763.25;;;6.12;71.43
56400;BME280;42298;53.638;9.876;2022-11-23T00:08:57;99749.69;;;6.07;71.36
56400;BME280;42298;53.638;9.876;2022-11-23T00:11:24;99754.84;;;6.08;71.31
56400;BME280;42298;53.638;9.876;2022-11-23T00:13:50;99756.97;;;6.11;71.49
56400;BME280;42298;53.638;9.876;2022-11-23T00:16:22;99759.94;;;6.15;71.11
56400;BME280;42298;53.638;9.876;2022-11-23T00:18:48;99756.88;;;6.16;71.40
56400;BME280;42298;53.638;9.876;2022-11-23T00:21:16;99755.97;;;6.21;71.15
56400;BME280;42298;53.638;9.876;2022-11-23T00:23:43;99742.53;;;6.11;71.09
56400;BME280;42298;53.638;9.876;2022-11-23T00:26:09;99743.31;;;6.11;70.96
56400;BME280;42298;53.638;9.876;2022-11-23T00:28:35;99739.19;;;6.14;71.18
56400;BME280;42298;53.638;9.876;2022-11-23T00:31:13;99745.03;;;6.21;70.88
56400;BME280;42298;53.638;9.876;2022-11-23T00:33:38;99734.03;;;6.12;70.98
56400;BME280;42298;53.638;9.876;2022-11-23T00:36:12;99738.97;;;6.24;71.14
56400;BME280;42298;53.638;9.876;2022-11-23T00:38:39;99744.00;;;6.17;71.03
56400;BME280;42298;53.638;9.876;2022-11-23T00:41:07;99745.75;;;6.13;71.25
56400;BME280;42298;53.638;9.876;2022-11-23T00:43:33;99746.03;;;6.11;70.80
56400;BME280;42298;53.638;9.876;2022-11-23T00:48:28;99738.16;;;5.96;71.17
56400;BME280;42298;53.638;9.876;2022-11-23T00:50:53;99736.25;;;5.97;71.53
56400;BME280;42298;53.638;9.876;2022-11-23T00:53:19;99740.28;;;5.99;71.15
56400;BME280;42298;53.638;9.876;2022-11-23T00:55:54;99725.22;;;6.02;71.01
56400;BME280;42298;53.638;9.876;2022-11-23T00:58:20;99748.47;;;6.13;71.27
56400;BME280;42298;53.638;9.876;2022-11-23T01:00:46;99737.53;;;6.13;71.22
56400;BME280;42298;53.638;9.876;2022-11-23T01:03:11;99754.84;;;6.22;71.03
56400;BME280;42298;53.638;9.876;2022-11-23T01:05:37;99758.19;;;6.19;71.29
56400;BME280;42298;53.638;9.876;2022-11-23T01:08:04;99753.84;;;6.18;71.27
56400;BME280;42298;53.638;9.876;2022-11-23T01:10:30;99747.47;;;6.22;70.92
56400;BME280;42298;53.638;9.876;2022-11-23T01:12:56;99744.91;;;6.26;70.57
56400;BME280;42298;53.638;9.876;2022-11-23T01:15:22;99735.50;;;6.18;70.75
56400;BME280;42298;53.638;9.876;2022-11-23T01:17:47;99744.00;;;6.17;70.90
56400;BME280;42298;53.638;9.876;2022-11-23T01:20:13;99740.78;;;6.15;70.85
56400;BME280;42298;53.638;9.876;2022-11-23T01:22:39;99736.31;;;6.05;71.06
56400;BME280;42298;53.638;9.876;2022-11-23T01:25:04;99723.38;;;6.11;71.07
56400;BME280;42298;53.638;9.876;2022-11-23T01:27:30;99735.50;;;6.18;70.85
56400;BME280;42298;53.638;9.876;2022-11-23T01:29:56;99724.16;;;6.25;70.90
56400;BME280;42298;53.638;9.876;2022-11-23T01:32:21;99738.03;;;6.28;70.92
56400;BME280;42298;53.638;9.876;2022-11-23T01:34:47;99748.97;;;6.28;70.96
56400;BME280;42298;53.638;9.876;2022-11-23T01:37:12;99749.91;;;6.24;71.07
56400;BME280;42298;53.638;9.876;2022-11-23T01:39:37;99743.50;;;6.28;70.54
56400;BME280;42298;53.638;9.876;2022-11-23T01:42:02;99742.19;;;6.26;70.80
56400;BME280;42298;53.638;9.876;2022-11-23T01:44:33;99756.75;;;6.35;70.60
56400;BME280;42298;53.638;9.876;2022-11-23T01:47:05;99749.78;;;6.29;70.67
56400;BME280;42298;53.638;9.876;2022-11-23T01:49:46;99759.59;;;6.30;70.40
56400;BME280;42298;53.638;9.876;2022-11-23T01:52:17;99743.81;;;6.27;70.37
56400;BME280;42298;53.638;9.876;2022-11-23T01:54:49;99750.66;;;6.38;70.49
56400;BME280;42298;53.638;9.876;2022-11-23T01:57:18;99750.19;;;6.36;70.83
56400;BME280;42298;53.638;9.876;2022-11-23T01:59:45;99750.50;;;6.34;70.57
56400;BME280;42298;53.638;9.876;2022-11-23T02:02:13;99757.94;;;6.42;70.22
56400;BME280;42298;53.638;9.876;2022-11-23T02:04:42;99746.63;;;6.35;70.66
56400;BME280;42298;53.638;9.876;2022-11-23T02:07:10;99743.38;;;6.33;71.05
56400;BME280;42298;53.638;9.876;2022-11-23T02:09:36;99757.03;;;6.47;70.27
56400;BME280;42298;53.638;9.876;2022-11-23T02:12:02;99754.44;;;6.42;70.24
56400;BME280;42298;53.638;9.876;2022-11-23T02:14:27;99761.00;;;6.41;70.69
56400;BME280;42298;53.638;9.876;2022-11-23T02:16:56;99758.25;;;6.41;71.23
56400;BME280;42298;53.638;9.876;2022-11-23T02:24:54;99747.84;;;6.43;70.95
56400;BME280;42298;53.638;9.876;2022-11-23T02:27:19;99733.03;;;6.44;71.30
56400;BME280;42298;53.638;9.876;2022-11-23T02:29:46;99736.38;;;6.41;71.05
56400;BME280;42298;53.638;9.876;2022-11-23T02:32:20;99740.16;;;6.45;70.92
56400;BME280;42298;53.638;9.876;2022-11-23T02:34:48;99749.34;;;6.49;71.85
56400;BME280;42298;53.638;9.876;2022-11-23T02:37:13;99730.31;;;6.44;71.36
56400;BME280;42298;53.638;9.876;2022-11-23T02:39:45;99750.44;;;6.61;71.76
56400;BME280;42298;53.638;9.876;2022-11-23T02:42:12;99738.91;;;6.51;71.41
56400;BME280;42298;53.638;9.876;2022-11-23T02:47:09;99751.16;;;6.53;71.95
56400;BME280;42298;53.638;9.876;2022-11-23T02:49:35;99746.50;;;6.54;72.33
56400;BME280;42298;53.638;9.876;2022-11-23T02:52:02;99745.91;;;6.57;72.05
56400;BME280;42298;53.638;9.876;2022-11-23T02:54:27;99742.13;;;6.53;71.57
56400;BME280;42298;53.638;9.876;2022-11-23T02:56:53;99738.91;;;6.51;71.91
56400;BME280;42298;53.638;9.876;2022-11-23T02:59:19;99740.63;;;6.47;72.20
56400;BME280;42298;53.638;9.876;2022-11-23T03:01:45;99737.09;;;6.46;72.38
56400;BME280;42298;53.638;9.876;2022-11-23T03:04:10;99734.84;;;6.48;72.59
56400;BME280;42298;53.638;9.876;2022-11-23T03:06:36;99727.50;;;6.35;72.30
56400;BME280;42298;53.638;9.876;2022-11-23T03:09:02;99734.53;;;6.50;72.27
56400;BME280;42298;53.638;9.876;2022-11-23T03:11:27;99727.25;;;6.45;72.52
56400;BME280;42298;53.638;9.876;2022-11-23T03:13:53;99736.56;;;6.58;72.67
56400;BME280;42298;53.638;9.876;2022-11-23T03:16:18;99738.47;;;6.57;72.27
56400;BME280;42298;53.638;9.876;2022-11-23T03:18:43;99741.94;;;6.63;72.30
56400;BME280;42298;53.638;9.876;2022-11-23T03:21:09;99744.16;;;6.61;72.32
56400;BME280;42298;53.638;9.876;2022-11-23T03:23:35;99739.81;;;6.60;72.24
56400;BME280;42298;53.638;9.876;2022-11-23T03:26:01;99748.50;;;6.62;71.95
56400;BME280;42298;53.638;9.876;2022-11-23T03:28:27;99752.97;;;6.58;71.97
56400;BME280;42298;53.638;9.876;2022-11-23T03:30:52;99735.06;;;6.52;72.65
56400;BME280;42298;53.638;9.876;2022-11-23T03:33:19;99729.78;;;6.55;72.46
56400;BME280;42298;53.638;9.876;2022-11-23T03:35:45;99746.66;;;6.71;72.20
56400;BME280;42298;53.638;9.876;2022-11-23T03:38:11;99735.44;;;6.59;72.60
56400;BME280;42298;53.638;9.876;2022-11-23T03:40:37;99732.84;;;6.54;72.73
56400;BME280;42298;53.638;9.876;2022-11-23T03:43:02;99738.31;;;6.54;72.83
56400;BME280;42298;53.638;9.876;2022-11-23T03:45:27;99728.47;;;6.53;72.98
56400;BME280;42298;53.638;9.876;2022-11-23T03:47:53;99727.22;;;6.59;72.08
56400;BME280;42298;53.638;9.876;2022-11-23T03:50:18;99734.72;;;6.67;72.22
56400;BME280;42298;53.638;9.876;2022-11-23T03:52:44;99734.91;;;6.70;72.37
56400;BME280;42298;53.638;9.876;2022-11-23T03:55:09;99717.03;;;6.51;72.57
56400;BME280;42298;53.638;9.876;2022-11-23T03:57:35;99737.66;;;6.70;72.18
56400;BME280;42298;53.638;9.876;2022-11-23T04:00:01;99739.69;;;6.65;72.57
56400;BME280;42298;53.638;9.876;2022-11-23T04:02:26;99749.78;;;6.78;72.22
56400;BME280;42298;53.638;9.876;2022-11-23T04:04:52;99736.09;;;6.78;72.00
56400;BME280;42298;53.638;9.876;2022-11-23T04:07:17;99742.16;;;6.88;72.01
56400;BME280;42298;53.638;9.876;2022-11-23T04:09:43;99740.81;;;6.86;71.90
56400;BME280;42298;53.638;9.876;2022-11-23T04:12:09;99726.53;;;6.89;72.12
56400;BME280;42298;53.638;9.876;2022-11-23T04:14:34;99710.16;;;6.75;72.12
56400;BME280;42298;53.638;9.876;2022-11-23T04:17:00;99740.59;;;6.96;71.58
56400;BME280;42298;53.638;9.876;2022-11-23T04:19:28;99727.59;;;6.79;71.96
56400;BME280;42298;53.638;9.876;2022-11-23T04:21:56;99732.50;;;6.91;72.09
56400;BME280;42298;53.638;9.876;2022-11-23T04:24:22;99750.72;;;6.95;72.07
56400;BME280;42298;53.638;9.876;2022-11-23T04:26:47;99749.00;;;6.99;72.06
56400;BME280;42298;53.638;9.876;2022-11-23T04:29:12;99740.47;;;7.01;71.79
56400;BME280;42298;53.638;9.876;2022-11-23T04:31:37;99741.78;;;7.03;71.62
56400;BME280;42298;53.638;9.876;2022-11-23T04:34:03;99723.16;;;6.92;71.85
56400;BME280;42298;53.638;9.876;2022-11-23T04:36:28;99752.28;;;7.10;72.06
56400;BME280;42298;53.638;9.876;2022-11-23T04:38:54;99743.28;;;7.09;71.97
56400;BME280;42298;53.638;9.876;2022-11-23T04:41:20;99731.47;;;7.00;71.87
56400;BME280;42298;53.638;9.876;2022-11-23T04:43:49;99747.88;;;7.22;71.67
56400;BME280;42298;53.638;9.876;2022-11-23T04:46:16;99744.94;;;7.19;71.61
56400;BME280;42298;53.638;9.876;2022-11-23T04:48:41;99744.16;;;7.18;71.21
56400;BME280;42298;53.638;9.876;2022-11-23T04:51:06;99730.38;;;7.10;71.47
56400;BME280;42298;53.638;9.876;2022-11-23T04:53:32;99740.09;;;7.16;71.53
56400;BME280;42298;53.638;9.876;2022-11-23T04:55:57;99754.47;;;7.21;71.49
56400;BME280;42298;53.638;9.876;2022-11-23T04:58:23;99755.16;;;7.27;71.43
56400;BME280;42298;53.638;9.876;2022-11-23T05:00:48;99737.34;;;7.16;71.53
56400;BME280;42298;53.638;9.876;2022-11-23T05:03:14;99754.28;;;7.18;71.51
56400;BME280;42298;53.638;9.876;2022-11-23T05:05:40;99740.25;;;7.11;71.58
56400;BME280;42298;53.638;9.876;2022-11-23T05:08:07;99756.84;;;7.14;72.09
56400;BME280;42298;53.638;9.876;2022-11-23T05:10:32;99746.19;;;7.13;72.46
56400;BME280;42298;53.638;9.876;2022-11-23T05:12:58;99742.97;;;7.11;72.31
56400;BME280;42298;53.638;9.876;2022-11-23T05:15:23;99739.06;;;7.03;72.77
56400;BME280;42298;53.638;9.876;2022-11-23T05:17:49;99751.97;;;7.11;72.87
56400;BME280;42298;53.638;9.876;2022-11-23T05:20:15;99748.44;;;7.11;72.94
56400;BME280;42298;53.638;9.876;2022-11-23T05:22:41;99749.94;;;7.17;73.14
56400;BME280;42298;53.638;9.876;2022-11-23T05:25:07;99750.78;;;7.26;72.88
56400;BME280;42298;53.638;9.876;2022-11-23T05:27:33;99721.56;;;7.13;72.60
56400;BME280;42298;53.638;9.876;2022-11-23T05:29:58;99719.06;;;7.03;72.67
56400;BME280;42298;53.638;9.876;2022-11-23T05:32:23;99744.16;;;7.18;72.57
56400;BME280;42298;53.638;9.876;2022-11-23T05:34:48;99745.94;;;7.23;72.78
56400;BME280;42298;53.638;9.876;2022-11-23T05:37:17;99755.28;;;7.22;72.85
56400;BME280;42298;53.638;9.876;2022-11-23T05:39:42;99748.88;;;7.26;73.13
56400;BME280;42298;53.638;9.876;2022-11-23T05:42:08;99736.56;;;7.15;72.68
56400;BME280;42298;53.638;9.876;2022-11-23T05:44:34;99749.50;;;7.23;73.17
56400;BME280;42298;53.638;9.876;2022-11-23T05:46:59;99747.72;;;7.27;73.08
56400;BME280;42298;53.638;9.876;2022-11-23T05:49:24;99728.81;;;7.17;72.75
56400;BME280;42298;53.638;9.876;2022-11-23T05:51:50;99749.81;;;7.22;73.27
56400;BME280;42298;53.638;9.876;2022-11-23T05:54:15;99718.19;;;7.16;73.65
56400;BME280;42298;53.638;9.876;2022-11-23T05:56:40;99755.63;;;7.29;73.47
56400;BME280;42298;53.638;9.876;2022-11-23T05:59:06;99719.59;;;7.05;73.29
56400;BME280;42298;53.638;9.876;2022-11-23T06:01:32;99757.69;;;7.23;73.57
56400;BME280;42298;53.638;9.876;2022-11-23T06:03:57;99751.59;;;7.26;73.41
56400;BME280;42298;53.638;9.876;2022-11-23T06:06:23;99752.41;;;7.27;73.43
56400;BME280;42298;53.638;9.876;2022-11-23T06:08:48;99748.66;;;7.23;73.41
56400;BME280;42298;53.638;9.876;2022-11-23T06:11:13;99753.53;;;7.26;73.38
56400;BME280;42298;53.638;9.876;2022-11-23T06:13:39;99722.69;;;7.12;73.20
56400;BME280;42298;53.638;9.876;2022-11-23T06:16:04;99753.72;;;7.29;73.43
56400;BME280;42298;53.638;9.876;2022-11-23T06:18:30;99753.72;;;7.29;73.34
56400;BME280;42298;53.638;9.876;2022-11-23T06:20:59;99752.16;;;7.37;73.56
56400;BME280;42298;53.638;9.876;2022-11-23T06:23:24;99756.66;;;7.33;73.09
56400;BME280;42298;53.638;9.876;2022-11-23T06:25:49;99760.50;;;7.32;73.24
56400;BME280;42298;53.638;9.876;2022-11-23T06:28:15;99766.44;;;7.25;73.42
56400;BME280;42298;53.638;9.876;2022-11-23T06:30:40;99757.69;;;7.23;73.58
56400;BME280;42298;53.638;9.876;2022-11-23T06:33:05;99751.81;;;7.30;73.30
56400;BME280;42298;53.638;9.876;2022-11-23T06:35:31;99768.22;;;7.30;73.39
56400;BME280;42298;53.638;9.876;2022-11-23T06:37:56;99762.44;;;7.31;73.19
56400;BME280;42298;53.638;9.876;2022-11-23T06:40:21;99765.97;;;7.32;73.01
56400;BME280;42298;53.638;9.876;2022-11-23T06:42:46;99775.00;;;7.32;73.31
56400;BME280;42298;53.638;9.876;2022-11-23T06:45:14;99771.00;;;7.38;73.23
56400;BME280;42298;53.638;9.876;2022-11-23T06:47:39;99764.88;;;7.33;73.15
56400;BME280;42298;53.638;9.876;2022-11-23T06:50:05;99776.19;;;7.40;72.91
56400;BME280;42298;53.638;9.876;2022-11-23T06:52:31;99766.78;;;7.32;73.27
56400;BME280;42298;53.638;9.876;2022-11-23T06:54:56;99747.72;;;7.27;72.86
56400;BME280;42298;53.638;9.876;2022-11-23T06:57:21;99772.00;;;7.42;73.22
56400;BME280;42298;53.638;9.876;2022-11-23T06:59:47;99778.81;;;7.45;73.46
56400;BME280;42298;53.638;9.876;2022-11-23T07:02:12;99783.47;;;7.44;73.38
56400;BME280;42298;53.638;9.876;2022-11-23T07:04:38;99786.00;;;7.41;73.21
56400;BME280;42298;53.638;9.876;2022-11-23T07:07:08;99778.91;;;7.40;73.07
56400;BME280;42298;53.638;9.876;2022-11-23T07:09:33;99791.91;;;7.56;73.16
56400;BME280;42298;53.638;9.876;2022-11-23T07:11:59;99784.75;;;7.47;73.10
56400;BME280;42298;53.638;9.876;2022-11-23T07:14:26;99781.22;;;7.46;72.82
56400;BME280;42298;53.638;9.876;2022-11-23T07:16:53;99797.72;;;7.55;73.20
56400;BME280;42298;53.638;9.876;2022-11-23T07:19:22;99799.19;;;7.61;73.03
56400;BME280;42298;53.638;9.876;2022-11-23T07:21:47;99787.88;;;7.54;73.28
56400;BME280;42298;53.638;9.876;2022-11-23T07:24:12;99796.78;;;7.59;73.03
56400;BME280;42298;53.638;9.876;2022-11-23T07:26:37;99778.66;;;7.50;73.20
56400;BME280;42298;53.638;9.876;2022-11-23T07:29:03;99790.00;;;7.57;73.42
56400;BME280;42298;53.638;9.876;2022-11-23T07:31:28;99793.53;;;7.57;73.33
56400;BME280;42298;53.638;9.876;2022-11-23T07:33:53;99791.34;;;7.68;73.78
56400;BME280;42298;53.638;9.876;2022-11-23T07:36:18;99801.34;;;7.72;73.31
56400;BME280;42298;53.638;9.876;2022-11-23T07:38:44;99778.84;;;7.53;73.54
56400;BME280;42298;53.638;9.876;2022-11-23T07:41:09;99775.16;;;7.58;73.29
56400;BME280;42298;53.638;9.876;2022-11-23T07:43:34;99801.97;;;7.69;73.21
56400;BME280;42298;53.638;9.876;2022-11-23T07:46:00;99804.91;;;7.73;73.36
56400;BME280;42298;53.638;9.876;2022-11-23T07:48:25;99784.53;;;7.57;73.35
56400;BME280;42298;53.638;9.876;2022-11-23T07:50:51;99800.56;;;7.72;73.58
56400;BME280;42298;53.638;9.876;2022-11-23T07:53:16;99796.03;;;7.67;73.25
56400;BME280;42298;53.638;9.876;2022-11-23T07:55:41;99803.16;;;7.77;73.47
56400;BME280;42298;53.638;9.876;2022-11-23T07:58:08;99811.13;;;7.87;73.19
56400;BME280;42298;53.638;9.876;2022-11-23T08:00:33;99808.72;;;7.86;72.97
56400;BME280;42298;53.638;9.876;2022-11-23T08:03:04;99818.72;;;7.90;73.23
56400;BME280;42298;53.638;9.876;2022-11-23T08:05:32;99798.22;;;7.88;73.58
56400;BME280;42298;53.638;9.876;2022-11-23T08:08:00;99786.59;;;7.82;72.96
56400;BME280;42298;53.638;9.876;2022-11-23T08:10:28;99819.91;;;7.98;73.23
56400;BME280;42298;53.638;9.876;2022-11-23T08:13:01;99816.69;;;8.04;73.42
56400;BME280;42298;53.638;9.876;2022-11-23T08:15:27;99816.47;;;7.92;73.31
56400;BME280;42298;53.638;9.876;2022-11-23T08:18:00;99823.19;;;8.08;73.33
56400;BME280;42298;53.638;9.876;2022-11-23T08:20:26;99828.03;;;8.11;73.45
56400;BME280;42298;53.638;9.876;2022-11-23T08:22:52;99825.94;;;8.17;73.27
56400;BME280;42298;53.638;9.876;2022-11-23T08:25:21;99792.81;;;8.05;72.72
56400;BME280;42298;53.638;9.876;2022-11-23T08:28:13;99823.13;;;8.30;72.44
56400;BME280;42298;53.638;9.876;2022-11-23T08:30:38;99812.75;;;8.19;72.57
56400;BME280;42298;53.638;9.876;2022-11-23T08:33:05;99834.41;;;8.29;72.77
56400;BME280;42298;53.638;9.876;2022-11-23T08:35:33;99828.47;;;8.35;72.53
56400;BME280;42298;53.638;9.876;2022-11-23T08:37:58;99812.06;;;8.22;73.02
56400;BME280;42298;53.638;9.876;2022-11-23T08:40:23;99822.81;;;8.32;72.69
56400;BME280;42298;53.638;9.876;2022-11-23T08:42:49;99807.44;;;8.22;72.51
56400;BME280;42298;53.638;9.876;2022-11-23T08:45:14;99797.56;;;8.21;72.86
56400;BME280;42298;53.638;9.876;2022-11-23T08:47:40;99827.38;;;8.45;72.77
56400;BME280;42298;53.638;9.876;2022-11-23T08:50:08;99789.34;;;8.21;73.14
56400;BME280;42298;53.638;9.876;2022-11-23T08:52:34;99829.16;;;8.49;72.66
56400;BME280;42298;53.638;9.876;2022-11-23T08:55:05;99806.72;;;8.47;72.61
56400;BME280;42298;53.638;9.876;2022-11-23T08:57:30;99839.50;;;8.52;73.13
56400;BME280;42298;53.638;9.876;2022-11-23T08:59:56;99832.28;;;8.65;73.12
56400;BME280;42298;53.638;9.876;2022-11-23T09:02:21;99798.47;;;8.47;72.49
56400;BME280;42298;53.638;9.876;2022-11-23T09:04:47;99794.78;;;8.52;72.47
56400;BME280;42298;53.638;9.876;2022-11-23T09:07:12;99788.97;;;8.53;72.40
56400;BME280;42298;53.638;9.876;2022-11-23T09:09:37;99813.22;;;8.68;72.27
56400;BME280;42298;53.638;9.876;2022-11-23T09:12:03;99794.00;;;8.60;72.70
56400;BME280;42298;53.638;9.876;2022-11-23T09:14:28;99829.59;;;8.90;72.45
56400;BME280;42298;53.638;9.876;2022-11-23T09:16:54;99832.34;;;8.99;72.36
56400;BME280;42298;53.638;9.876;2022-11-23T09:19:19;99829.78;;;9.11;72.38
56400;BME280;42298;53.638;9.876;2022-11-23T09:21:46;99815.09;;;9.07;72.05
56400;BME280;42298;53.638;9.876;2022-11-23T09:24:11;99841.91;;;9.18;71.97
56400;BME280;42298;53.638;9.876;2022-11-23T09:26:38;99843.03;;;9.17;72.47
56400;BME280;42298;53.638;9.876;2022-11-23T09:29:04;99836.88;;;9.03;72.32
56400;BME280;42298;53.638;9.876;2022-11-23T09:31:30;99848.03;;;9.15;72.55
56400;BME280;42298;53.638;9.876;2022-11-23T09:33:55;99830.09;;;9.18;72.33
56400;BME280;42298;53.638;9.876;2022-11-23T09:36:21;99819.75;;;9.15;71.72
56400;BME280;42298;53.638;9.876;2022-11-23T09:38:47;99831.72;;;9.19;72.48
56400;BME280;42298;53.638;9.876;2022-11-23T09:41:40;99852.72;;;9.40;72.64
56400;BME280;42298;53.638;9.876;2022-11-23T09:52:16;99858.22;;;9.66;71.99
56400;BME280;42298;53.638;9.876;2022-11-23T09:54:44;99854.31;;;9.76;71.86
56400;BME280;42298;53.638;9.876;2022-11-23T09:57:15;99834.03;;;9.97;71.96
56400;BME280;42298;53.638;9.876;2022-11-23T09:59:51;99825.56;;;10.28;71.12
56400;BME280;42298;53.638;9.876;2022-11-23T10:02:21;99863.19;;;10.53;70.29
56400;BME280;42298;53.638;9.876;2022-11-23T10:04:47;99818.22;;;10.40;69.70
56400;BME280;42298;53.638;9.876;2022-11-23T10:09:52;99835.88;;;10.39;69.48
56400;BME280;42298;53.638;9.876;2022-11-23T10:24:17;99860.56;;;10.19;70.42
56400;BME280;42298;53.638;9.876;2022-11-23T10:26:47;99860.41;;;10.15;70.65
56400;BME280;42298;53.638;9.876;2022-11-23T10:29:33;99854.38;;;10.30;70.27
56400;BME280;42298;53.638;9.876;2022-11-23T10:31:59;99859.47;;;10.49;70.27
56400;BME280;42298;53.638;9.876;2022-11-23T10:34:50;99851.34;;;10.52;69.23
56400;BME280;42298;53.638;9.876;2022-11-23T10:37:23;99865.13;;;10.52;69.90
56400;BME280;42298;53.638;9.876;2022-11-23T10:39:48;99858.34;;;10.50;69.72
56400;BME280;42298;53.638;9.876;2022-11-23T10:44:44;99847.75;;;10.60;69.51
56400;BME280;42298;53.638;9.876;2022-11-23T10:47:34;99860.97;;;10.75;68.86
56400;BME280;42298;53.638;9.876;2022-11-23T10:50:00;99838.41;;;10.53;69.24
56400;BME280;42298;53.638;9.876;2022-11-23T10:52:30;99864.56;;;10.67;69.04
56400;BME280;42298;53.638;9.876;2022-11-23T10:54:59;99851.44;;;10.73;69.18
56400;BME280;42298;53.638;9.876;2022-11-23T10:57:33;99846.38;;;10.46;69.25
56400;BME280;42298;53.638;9.876;2022-11-23T11:02:55;99824.69;;;10.44;69.09
56400;BME280;42298;53.638;9.876;2022-11-23T11:05:31;99872.31;;;10.74;69.07
56400;BME280;42298;53.638;9.876;2022-11-23T11:08:00;99842.09;;;10.65;68.59
56400;BME280;42298;53.638;9.876;2022-11-23T11:10:33;99855.88;;;10.86;68.71
56400;BME280;42298;53.638;9.876;2022-11-23T11:12:59;99858.88;;;10.72;69.05
56400;BME280;42298;53.638;9.876;2022-11-23T11:15:24;99869.94;;;10.93;68.53
56400;BME280;42298;53.638;9.876;2022-11-23T11:17:55;99843.06;;;10.90;68.77
56400;BME280;42298;53.638;9.876;2022-11-23T11:22:51;99835.69;;;10.73;68.15
56400;BME280;42298;53.638;9.876;2022-11-23T11:25:27;99862.44;;;11.02;68.63
56400;BME280;42298;53.638;9.876;2022-11-23T11:27:55;99848.13;;;11.08;68.75
56400;BME280;42298;53.638;9.876;2022-11-23T11:30:23;99851.69;;;11.09;68.99
56400;BME280;42298;53.638;9.876;2022-11-23T11:33:05;99856.91;;;11.02;68.71
56400;BME280;42298;53.638;9.876;2022-11-23T11:35:39;99865.41;;;11.17;68.58
56400;BME280;42298;53.638;9.876;2022-11-23T11:38:26;99860.72;;;11.18;68.06
56400;BME280;42298;53.638;9.876;2022-11-23T11:40:54;99866.69;;;11.20;68.17
56400;BME280;42298;53.638;9.876;2022-11-23T11:43:37;99864.47;;;11.34;68.64
56400;BME280;42298;53.638;9.876;2022-11-23T11:46:16;99862.41;;;11.31;68.35
56400;BME280;42298;53.638;9.876;2022-11-23T11:48:52;99853.06;;;11.23;69.10
56400;BME280;42298;53.638;9.876;2022-11-23T11:51:19;99866.91;;;11.35;69.19
56400;BME280;42298;53.638;9.876;2022-11-23T11:53:56;99865.56;;;11.41;68.70
56400;BME280;42298;53.638;9.876;2022-11-23T11:56:30;99869.41;;;11.28;69.56
56400;BME280;42298;53.638;9.876;2022-11-23T11:59:15;99865.25;;;11.34;69.89
56400;BME280;42298;53.638;9.876;2022-11-23T12:02:14;99852.50;;;11.30;69.36
56400;BME280;42298;53.638;9.876;2022-11-23T12:05:10;99865.56;;;11.41;69.34
56400;BME280;42298;53.638;9.876;2022-11-23T12:07:51;99852.22;;;11.43;69.63
56400;BME280;42298;53.638;9.876;2022-11-23T12:10:49;99859.47;;;11.48;69.52
56400;BME280;42298;53.638;9.876;2022-11-23T12:13:19;99831.59;;;11.29;70.29
56400;BME280;42298;53.638;9.876;2022-11-23T12:15:48;99849.88;;;11.54;70.01
56400;BME280;42298;53.638;9.876;2022-11-23T12:21:20;99853.91;;;11.56;69.78
56400;BME280;42298;53.638;9.876;2022-11-23T12:23:59;99854.94;;;11.52;69.82
56400;BME280;42298;53.638;9.876;2022-11-23T12:29:51;99832.34;;;11.38;70.32
56400;BME280;42298;53.638;9.876;2022-11-23T12:32:40;99852.91;;;11.61;70.22
56400;BME280;42298;53.638;9.876;2022-11-23T12:41:06;99843.91;;;11.73;69.96
56400;BME280;42298;53.638;9.876;2022-11-23T12:44:16;99840.81;;;11.74;69.78
56400;BME280;42298;53.638;9.876;2022-11-23T12:47:10;99845.16;;;11.75;69.65
56400;BME280;42298;53.638;9.876;2022-11-23T12:49:53;99841.06;;;11.81;69.49
56400;BME280;42298;53.638;9.876;2022-11-23T12:52:42;99828.84;;;11.70;69.50
56400;BME280;42298;53.638;9.876;2022-11-23T12:55:22;99844.28;;;11.83;69.98
56400;BME280;42298;53.638;9.876;2022-11-23T13:00:34;99846.66;;;11.73;70.23
56400;BME280;42298;53.638;9.876;2022-11-23T13:09:00;99838.38;;;11.73;70.05
56400;BME280;42298;53.638;9.876;2022-11-23T13:11:46;99844.16;;;11.80;69.60
56400;BME280;42298;53.638;9.876;2022-11-23T13:17:23;99841.06;;;11.81;69.33
56400;BME280;42298;53.638;9.876;2022-11-23T13:22:38;99850.00;;;11.78;69.18
56400;BME280;42298;53.638;9.876;2022-11-23T13:30:36;99843.63;;;11.98;69.63
56400;BME280;42298;53.638;9.876;2022-11-23T13:40:35;99845.41;;;12.15;68.16
56400;BME280;42298;53.638;9.876;2022-11-23T13:43:24;99838.84;;;12.07;68.67
56400;BME280;42298;53.638;9.876;2022-11-23T13:46:12;99851.94;;;12.10;69.21
56400;BME280;42298;53.638;9.876;2022-11-23T13:48:49;99845.09;;;11.84;68.67
56400;BME280;42298;53.638;9.876;2022-11-23T13:51:25;99835.88;;;11.80;69.58
56400;BME280;42298;53.638;9.876;2022-11-23T13:53:56;99813.03;;;11.79;69.46
56400;BME280;42298;53.638;9.876;2022-11-23T13:56:38;99833.28;;;11.95;69.09
56400;BME280;42298;53.638;9.876;2022-11-23T14:02:01;99833.53;;;12.02;68.67
56400;BME280;42298;53.638;9.876;2022-11-23T14:04:46;99824.66;;;11.97;68.74
56400;BME280;42298;53.638;9.876;2022-11-23T14:07:23;99817.78;;;12.03;68.00
56400;BME280;42298;53.638;9.876;2022-11-23T14:10:02;99830.34;;;12.12;67.89
56400;BME280;42298;53.638;9.876;2022-11-23T14:12:49;99836.06;;;12.07;67.85
56400;BME280;42298;53.638;9.876;2022-11-23T14:15:20;99832.41;;;12.03;68.04
56400;BME280;42298;53.638;9.876;2022-11-23T14:34:48;99821.09;;;11.64;68.20
56400;BME280;42298;53.638;9.876;2022-11-23T14:43:12;99819.19;;;11.55;68.62
56400;BME280;42298;53.638;9.876;2022-11-23T14:45:41;99826.53;;;11.51;68.58
56400;BME280;42298;53.638;9.876;2022-11-23T14:48:27;99815.59;;;11.43;69.03
56400;BME280;42298;53.638;9.876;2022-11-23T14:51:04;99837.66;;;11.64;68.58
56400;BME280;42298;53.638;9.876;2022-11-23T14:53:38;99810.94;;;11.55;68.72
56400;BME280;42298;53.638;9.876;2022-11-23T14:56:04;99818.84;;;11.57;68.64
56400;BME280;42298;53.638;9.876;2022-11-23T14:58:33;99797.91;;;11.44;68.59
56400;BME280;42298;53.638;9.876;2022-11-23T15:01:02;99827.69;;;11.50;68.90
56400;BME280;42298;53.638;9.876;2022-11-23T15:03:29;99808.88;;;11.32;69.02